DucheSS Of Scandinavia — OUZI2 — position and weather

sailwx.info

Track history (hours):
 
Tides and Currents Weather Stations Pressure Air Temp Water Temp Dewpoint Dewpoint Depression Visibility Wind Speed Wind Dir Waves Ship Positions

DucheSS Of Scandinavia

Operator: DFDS A/S

Last reported at 2014-Sep-01 10:33 UTC. Time now 2014-Sep-01 11:14 UTC.
Position N 59°08' E 010°14'.

Length 134 m; draft 5.2 m.

Type: Passenger vessel. MMSI: 219002929.

Date/timePositionNaut miles runAvg speedWind from/ knotsBaromVisibWave heightAir tempDewpointWater temp
2014-Sep-01 10:33N 59°08' E 010°14'7 7.1
2014-Sep-01 09:33N 59°01' E 010°20'1515.3
2014-Sep-01 08:33N 59°01' E 010°50'1211.7
2014-Sep-01 07:33N 58°56' E 011°10'9 9.1
2014-Sep-01 06:33N 59°00' E 010°55'1515.1
2014-Sep-01 05:33N 59°01' E 010°25'9 9.2
2014-Sep-01 04:33N 59°08' E 010°14'1 1.4
2014-Sep-01 03:33N 59°06' E 010°14'0 0.2
2014-Sep-01 02:33N 59°06' E 010°14'0 0.0
2014-Sep-01 01:33N 59°06' E 010°14'0 0.0
2014-Sep-01 00:33N 59°06' E 010°14'0 0.0
2014-Aug-31 23:33N 59°06' E 010°14'0 0.0
2014-Aug-31 22:33N 59°06' E 010°14'0 0.0
2014-Aug-31 21:33N 59°06' E 010°14'0 0.0
2014-Aug-31 20:33N 59°06' E 010°14'0 0.0
2014-Aug-31 19:33N 59°06' E 010°14'0 0.0
2014-Aug-31 18:33N 59°06' E 010°14'0 0.0
2014-Aug-31 17:33N 59°06' E 010°14'1 1.1
2014-Aug-31 16:32N 59°07' E 010°14'1111.4
2014-Aug-31 15:34N 59°01' E 010°31'1615.7
2014-Aug-31 14:34N 58°59' E 011°01'5 4.7
2014-Aug-31 13:29N 58°56' E 011°09'1213.2
2014-Aug-31 12:33N 59°01' E 010°48'1615.6
2014-Aug-31 11:33N 59°01' E 010°18'7 6.7
2014-Aug-31 10:33N 59°08' E 010°14'7 7.1
2014-Aug-31 09:34N 59°01' E 010°20'1514.8
2014-Aug-31 08:34N 59°02' E 010°49'1212.3
2014-Aug-31 07:34N 58°56' E 011°10'8 8.2
2014-Aug-31 06:33N 59°00' E 010°56'1515.4
2014-Aug-31 05:34N 59°01' E 010°27'10 9.6
2014-Aug-31 04:33N 59°08' E 010°14'1 1.4
2014-Aug-31 03:33N 59°06' E 010°14'0 0.1
2014-Aug-31 02:33N 59°06' E 010°14'0 0.0
2014-Aug-31 01:33N 59°06' E 010°14'0 0.0
2014-Aug-31 00:33N 59°06' E 010°14'0 0.0
2014-Aug-30 23:33N 59°06' E 010°14'0 0.0
2014-Aug-30 22:32N 59°06' E 010°14'0 0.0
2014-Aug-30 21:33N 59°06' E 010°14'0 0.0
2014-Aug-30 20:13N 59°06' E 010°14'0 0.0
2014-Aug-30 19:32N 59°06' E 010°14'0 0.0
2014-Aug-30 18:29N 59°06' E 010°14'0 0.0
2014-Aug-30 17:33N 59°06' E 010°14'1 1.4
2014-Aug-30 16:33N 59°08' E 010°14'1010.0
2014-Aug-30 15:33N 59°01' E 010°28'1414.4
2014-Aug-30 14:33N 59°00' E 010°56'9 8.6
2014-Aug-30 13:33N 58°56' E 011°10'1211.9
2014-Aug-30 12:33N 59°01' E 010°50'1615.9
2014-Aug-30 11:33N 59°01' E 010°19'7 7.0
2014-Aug-30 10:33N 59°08' E 010°14'7 7.2
2014-Aug-30 09:33N 59°01' E 010°21'1515.2
2014-Aug-30 08:33N 59°01' E 010°50'1211.6
2014-Aug-30 07:33N 58°56' E 011°10'9 9.4
2014-Aug-30 06:33N 59°01' E 010°54'1616.0
2014-Aug-30 05:33N 59°01' E 010°23'8 8.3
2014-Aug-30 04:33N 59°08' E 010°14'1 1.4
2014-Aug-30 03:32N 59°06' E 010°14'0 0.0
2014-Aug-30 02:33N 59°06' E 010°14'0 0.0
2014-Aug-30 01:33N 59°06' E 010°14'0 0.0
2014-Aug-30 00:33N 59°06' E 010°14'0 0.0
2014-Aug-29 23:33N 59°06' E 010°14'0 0.0
2014-Aug-29 22:34N 59°06' E 010°14'0 0.0
2014-Aug-29 21:33N 59°06' E 010°14'0 0.0
2014-Aug-29 20:32N 59°06' E 010°14'0 0.0
2014-Aug-29 19:32N 59°06' E 010°14'0 0.0
2014-Aug-29 18:34N 59°06' E 010°14'0 0.0
2014-Aug-29 17:34N 59°06' E 010°14'1 1.3
2014-Aug-29 16:32N 59°07' E 010°14'1010.3
2014-Aug-29 15:33N 59°01' E 010°28'1515.1
2014-Aug-29 14:33N 58°60' E 010°57'8 7.7
2014-Aug-29 13:33N 58°56' E 011°10'1211.7
2014-Aug-29 12:33N 59°01' E 010°49'1615.7
2014-Aug-29 11:34N 59°01' E 010°19'7 7.0
2014-Aug-29 10:33N 59°08' E 010°14'7 7.0
2014-Aug-29 09:33N 59°01' E 010°20'1515.4
2014-Aug-29 08:33N 59°01' E 010°49'1212.0
2014-Aug-29 07:33N 58°56' E 011°10'9 8.8
2014-Aug-29 06:33N 59°00' E 010°55'1615.8
2014-Aug-29 05:33N 59°01' E 010°25'9 8.9
2014-Aug-29 04:33N 59°08' E 010°14'1 1.4
2014-Aug-29 03:32N 59°06' E 010°14'0 0.0
2014-Aug-29 02:29N 59°06' E 010°14'0 0.0
2014-Aug-29 01:18N 59°06' E 010°14'0 0.0
2014-Aug-29 00:28N 59°06' E 010°14'0 0.0
2014-Aug-28 23:28N 59°06' E 010°14'0 0.0
2014-Aug-28 22:32N 59°06' E 010°14'0 0.0
2014-Aug-28 21:33N 59°06' E 010°14'0 0.0
2014-Aug-28 20:30N 59°06' E 010°14'0 0.0
2014-Aug-28 19:25N 59°06' E 010°14'0 0.0
2014-Aug-28 18:32N 59°06' E 010°14'0 0.0
2014-Aug-28 17:32N 59°06' E 010°14'1 1.4
2014-Aug-28 16:34N 59°08' E 010°14'10 9.9
2014-Aug-28 15:33N 59°01' E 010°28'1616.4
2014-Aug-28 14:33N 58°59' E 010°59'7 6.4
2014-Aug-28 13:33N 58°56' E 011°10'1111.1
2014-Aug-28 12:33N 59°01' E 010°51'1615.9
2014-Aug-28 11:33N 59°01' E 010°20'7 7.4
2014-Aug-28 10:33N 59°08' E 010°14'6 6.0
2014-Aug-28 09:33N 59°02' E 010°16'1616.3
2014-Aug-28 08:33N 59°01' E 010°48'1312.5
2014-Aug-28 07:33N 58°56' E 011°10'8 8.1
2014-Aug-28 06:33N 59°00' E 010°57'1616.4
2014-Aug-28 05:34N 59°01' E 010°25'9 9.0
2014-Aug-28 04:33N 59°08' E 010°14'1 1.3
2014-Aug-28 03:33N 59°06' E 010°14'0 0.1
2014-Aug-28 02:15N 59°06' E 010°14'0 0.0
2014-Aug-28 01:31N 59°06' E 010°14'0 0.0
2014-Aug-28 00:25N 59°06' E 010°14'0 0.0
2014-Aug-27 23:26N 59°06' E 010°14'0 0.0
2014-Aug-27 22:30N 59°06' E 010°14'0 0.0
2014-Aug-27 21:33N 59°06' E 010°14'0 0.0
2014-Aug-27 20:31N 59°06' E 010°14'0 0.0
2014-Aug-27 18:26N 59°06' E 010°14'0 0.0
2014-Aug-27 17:25N 59°06' E 010°14'1 1.6
2014-Aug-27 16:32N 59°08' E 010°14'1010.2
2014-Aug-27 15:33N 59°01' E 010°28'1515.5
2014-Aug-27 14:33N 58°60' E 010°58'8 7.5
2014-Aug-27 13:33N 58°56' E 011°10'1211.7
2014-Aug-27 12:33N 59°01' E 010°50'1615.7
2014-Aug-27 11:33N 59°01' E 010°19'7 7.0
2014-Aug-27 10:33N 59°08' E 010°14'7 6.7
2014-Aug-27 09:33N 59°01' E 010°19'1515.4
2014-Aug-27 08:33N 59°01' E 010°49'1212.4
2014-Aug-27 07:33N 58°56' E 011°10'9 9.1
2014-Aug-27 06:33N 59°00' E 010°55'1615.8
2014-Aug-27 05:33N 59°01' E 010°24'9 8.8
2014-Aug-27 04:33N 59°08' E 010°14'1 1.4
2014-Aug-27 03:33N 59°06' E 010°14'0 0.1
2014-Aug-27 02:33N 59°06' E 010°14'0 0.0
2014-Aug-27 01:33N 59°06' E 010°14'0 0.0
2014-Aug-27 00:33N 59°06' E 010°14'0 0.0
2014-Aug-26 23:33N 59°06' E 010°14'0 0.0
2014-Aug-26 22:33N 59°06' E 010°14'0 0.0
2014-Aug-26 21:33N 59°06' E 010°14'0 0.0
2014-Aug-26 20:33N 59°06' E 010°14'0 0.0
2014-Aug-26 19:33N 59°06' E 010°14'0 0.0
2014-Aug-26 18:33N 59°06' E 010°14'0 0.0
2014-Aug-26 17:33N 59°06' E 010°14'1 1.4
2014-Aug-26 16:33N 59°08' E 010°14'10 9.8
2014-Aug-26 15:33N 59°01' E 010°27'1615.5
2014-Aug-26 14:33N 59°00' E 010°57'8 8.0
2014-Aug-26 13:33N 58°56' E 011°10'1211.6
2014-Aug-26 12:33N 59°01' E 010°50'1616.3
2014-Aug-26 11:33N 59°01' E 010°18'7 6.8
2014-Aug-26 10:33N 59°08' E 010°14'7 6.7
2014-Aug-26 09:33N 59°01' E 010°19'1515.4
2014-Aug-26 08:33N 59°02' E 010°48'1212.3
2014-Aug-26 07:32N 58°56' E 011°10'8 8.2
2014-Aug-26 06:33N 59°00' E 010°57'1616.0
2014-Aug-26 05:33N 59°01' E 010°26'9 9.3
2014-Aug-26 04:33N 59°08' E 010°14'1 1.4
2014-Aug-26 03:33N 59°06' E 010°14'0 0.1
2014-Aug-26 02:33N 59°06' E 010°14'0 0.0
2014-Aug-26 01:33N 59°06' E 010°14'0 0.0
2014-Aug-26 00:33N 59°06' E 010°14'0 0.0
2014-Aug-25 23:33N 59°06' E 010°14'0 0.0
2014-Aug-25 22:33N 59°06' E 010°14'0 0.0
2014-Aug-25 21:33N 59°06' E 010°14'0 0.0
2014-Aug-25 20:33N 59°06' E 010°14'0 0.0
2014-Aug-25 19:33N 59°06' E 010°14'0 0.0
2014-Aug-25 18:33N 59°06' E 010°14'0 0.0
2014-Aug-25 17:33N 59°06' E 010°14'1 1.4
2014-Aug-25 16:33N 59°08' E 010°14'10 9.9
2014-Aug-25 15:33N 59°01' E 010°28'22 9.8
2014-Aug-25 13:19N 58°56' E 011°09'1215.1
2014-Aug-25 12:33N 59°01' E 010°49'1515.4
2014-Aug-25 11:33N 59°01' E 010°19'7 7.1
2014-Aug-25 10:33N 59°08' E 010°14'7 6.8
2014-Aug-25 09:33N 59°01' E 010°19'1615.7
2014-Aug-25 08:33N 59°01' E 010°49'1212.0
2014-Aug-25 07:33N 58°56' E 011°10'9 8.5
2014-Aug-25 06:33N 59°00' E 010°56'1616.3
2014-Aug-25 05:33N 59°01' E 010°24'9 8.9
2014-Aug-25 04:33N 59°08' E 010°14'1 1.4
2014-Aug-25 03:33N 59°06' E 010°14'0 0.0
2014-Aug-25 02:33N 59°06' E 010°14'0 0.0
2014-Aug-25 01:33N 59°06' E 010°14'0 0.0
2014-Aug-25 00:28N 59°06' E 010°14'0 0.0
2014-Aug-24 22:12N 59°06' E 010°14'0 0.0
2014-Aug-24 21:33N 59°06' E 010°14'0 0.0
2014-Aug-24 20:31N 59°06' E 010°14'0 0.0
2014-Aug-24 19:32N 59°06' E 010°14'0 0.0
2014-Aug-24 18:29N 59°06' E 010°14'0 0.0
2014-Aug-24 17:33N 59°06' E 010°14'1 1.2
2014-Aug-24 16:32N 59°07' E 010°14'1110.7
2014-Aug-24 15:33N 59°01' E 010°29'1515.0
2014-Aug-24 14:33N 58°60' E 010°59'7 6.5
2014-Aug-24 13:29N 58°56' E 011°10'1314.1
2014-Aug-24 12:33N 59°02' E 010°47'1616.3
2014-Aug-24 11:33N 59°02' E 010°16'6 5.7
2014-Aug-24 10:33N 59°08' E 010°14'7 7.0
2014-Aug-24 09:33N 59°01' E 010°20'1615.5
2014-Aug-24 08:33N 59°01' E 010°50'1211.7
2014-Aug-24 07:33N 58°56' E 011°10'9 9.1
2014-Aug-24 06:33N 59°00' E 010°55'1616.1
2014-Aug-24 05:33N 59°01' E 010°24'9 8.7
2014-Aug-24 04:33N 59°08' E 010°14'1 1.4
2014-Aug-24 03:33N 59°06' E 010°14'0 0.0
2014-Aug-23 03:33N 59°06' E 010°14'0 0.0
2014-Aug-22 19:09N 59°06' E 010°14'0 0.0
2014-Aug-22 18:32N 59°06' E 010°14'0 0.0
2014-Aug-22 17:33N 59°06' E 010°14'1 0.8
2014-Aug-22 16:29N 59°07' E 010°14'1111.5
2014-Aug-22 15:33N 59°01' E 010°30'1515.3
2014-Aug-22 14:34N 58°59' E 010°60'6 6.2
2014-Aug-22 13:33N 58°56' E 011°10'1312.7
2014-Aug-22 12:33N 59°02' E 010°48'1616.5
2014-Aug-22 11:33N 59°02' E 010°16'  
Track history (hours):
 
Tides and Currents Weather Stations Pressure Air Temp Water Temp Dewpoint Dewpoint Depression Visibility Wind Speed Wind Dir Waves Ship Positions

DucheSS Of Scandinavia

Operator: DFDS A/S

Last reported at 2014-Sep-01 10:33 UTC. Time now 2014-Sep-01 11:14 UTC.
Position N 59°08' E 010°14'.

Length 134 m; draft 5.2 m.

Type: Passenger vessel. MMSI: 219002929.

Date/timePositionNaut miles runAvg speedWind from/ knotsBaromVisibWave heightAir tempDewpointWater temp
2014-Sep-01 10:33N 59°08' E 010°14'7 7.1
2014-Sep-01 09:33N 59°01' E 010°20'1515.3
2014-Sep-01 08:33N 59°01' E 010°50'1211.7
2014-Sep-01 07:33N 58°56' E 011°10'9 9.1
2014-Sep-01 06:33N 59°00' E 010°55'1515.1
2014-Sep-01 05:33N 59°01' E 010°25'9 9.2
2014-Sep-01 04:33N 59°08' E 010°14'1 1.4
2014-Sep-01 03:33N 59°06' E 010°14'0 0.2
2014-Sep-01 02:33N 59°06' E 010°14'0 0.0
2014-Sep-01 01:33N 59°06' E 010°14'0 0.0
2014-Sep-01 00:33N 59°06' E 010°14'0 0.0
2014-Aug-31 23:33N 59°06' E 010°14'0 0.0
2014-Aug-31 22:33N 59°06' E 010°14'0 0.0
2014-Aug-31 21:33N 59°06' E 010°14'0 0.0
2014-Aug-31 20:33N 59°06' E 010°14'0 0.0
2014-Aug-31 19:33N 59°06' E 010°14'0 0.0
2014-Aug-31 18:33N 59°06' E 010°14'0 0.0
2014-Aug-31 17:33N 59°06' E 010°14'1 1.1
2014-Aug-31 16:32N 59°07' E 010°14'1111.4
2014-Aug-31 15:34N 59°01' E 010°31'1615.7
2014-Aug-31 14:34N 58°59' E 011°01'5 4.7
2014-Aug-31 13:29N 58°56' E 011°09'1213.2
2014-Aug-31 12:33N 59°01' E 010°48'1615.6
2014-Aug-31 11:33N 59°01' E 010°18'7 6.7
2014-Aug-31 10:33N 59°08' E 010°14'7 7.1
2014-Aug-31 09:34N 59°01' E 010°20'1514.8
2014-Aug-31 08:34N 59°02' E 010°49'1212.3
2014-Aug-31 07:34N 58°56' E 011°10'8 8.2
2014-Aug-31 06:33N 59°00' E 010°56'1515.4
2014-Aug-31 05:34N 59°01' E 010°27'10 9.6
2014-Aug-31 04:33N 59°08' E 010°14'1 1.4
2014-Aug-31 03:33N 59°06' E 010°14'0 0.1
2014-Aug-31 02:33N 59°06' E 010°14'0 0.0
2014-Aug-31 01:33N 59°06' E 010°14'0 0.0
2014-Aug-31 00:33N 59°06' E 010°14'0 0.0
2014-Aug-30 23:33N 59°06' E 010°14'0 0.0
2014-Aug-30 22:32N 59°06' E 010°14'0 0.0
2014-Aug-30 21:33N 59°06' E 010°14'0 0.0
2014-Aug-30 20:13N 59°06' E 010°14'0 0.0
2014-Aug-30 19:32N 59°06' E 010°14'0 0.0
2014-Aug-30 18:29N 59°06' E 010°14'0 0.0
2014-Aug-30 17:33N 59°06' E 010°14'1 1.4
2014-Aug-30 16:33N 59°08' E 010°14'1010.0
2014-Aug-30 15:33N 59°01' E 010°28'1414.4
2014-Aug-30 14:33N 59°00' E 010°56'9 8.6
2014-Aug-30 13:33N 58°56' E 011°10'1211.9
2014-Aug-30 12:33N 59°01' E 010°50'1615.9
2014-Aug-30 11:33N 59°01' E 010°19'7 7.0
2014-Aug-30 10:33N 59°08' E 010°14'7 7.2
2014-Aug-30 09:33N 59°01' E 010°21'1515.2
2014-Aug-30 08:33N 59°01' E 010°50'1211.6
2014-Aug-30 07:33N 58°56' E 011°10'9 9.4
2014-Aug-30 06:33N 59°01' E 010°54'1616.0
2014-Aug-30 05:33N 59°01' E 010°23'8 8.3
2014-Aug-30 04:33N 59°08' E 010°14'1 1.4
2014-Aug-30 03:32N 59°06' E 010°14'0 0.0
2014-Aug-30 02:33N 59°06' E 010°14'0 0.0
2014-Aug-30 01:33N 59°06' E 010°14'0 0.0
2014-Aug-30 00:33N 59°06' E 010°14'0 0.0
2014-Aug-29 23:33N 59°06' E 010°14'0 0.0
2014-Aug-29 22:34N 59°06' E 010°14'0 0.0
2014-Aug-29 21:33N 59°06' E 010°14'0 0.0
2014-Aug-29 20:32N 59°06' E 010°14'0 0.0
2014-Aug-29 19:32N 59°06' E 010°14'0 0.0
2014-Aug-29 18:34N 59°06' E 010°14'0 0.0
2014-Aug-29 17:34N 59°06' E 010°14'1 1.3
2014-Aug-29 16:32N 59°07' E 010°14'1010.3
2014-Aug-29 15:33N 59°01' E 010°28'1515.1
2014-Aug-29 14:33N 58°60' E 010°57'8 7.7
2014-Aug-29 13:33N 58°56' E 011°10'1211.7
2014-Aug-29 12:33N 59°01' E 010°49'1615.7
2014-Aug-29 11:34N 59°01' E 010°19'7 7.0
2014-Aug-29 10:33N 59°08' E 010°14'7 7.0
2014-Aug-29 09:33N 59°01' E 010°20'1515.4
2014-Aug-29 08:33N 59°01' E 010°49'1212.0
2014-Aug-29 07:33N 58°56' E 011°10'9 8.8
2014-Aug-29 06:33N 59°00' E 010°55'1615.8
2014-Aug-29 05:33N 59°01' E 010°25'9 8.9
2014-Aug-29 04:33N 59°08' E 010°14'1 1.4
2014-Aug-29 03:32N 59°06' E 010°14'0 0.0
2014-Aug-29 02:29N 59°06' E 010°14'0 0.0
2014-Aug-29 01:18N 59°06' E 010°14'0 0.0
2014-Aug-29 00:28N 59°06' E 010°14'0 0.0
2014-Aug-28 23:28N 59°06' E 010°14'0 0.0
2014-Aug-28 22:32N 59°06' E 010°14'0 0.0
2014-Aug-28 21:33N 59°06' E 010°14'0 0.0
2014-Aug-28 20:30N 59°06' E 010°14'0 0.0
2014-Aug-28 19:25N 59°06' E 010°14'0 0.0
2014-Aug-28 18:32N 59°06' E 010°14'0 0.0
2014-Aug-28 17:32N 59°06' E 010°14'1 1.4
2014-Aug-28 16:34N 59°08' E 010°14'10 9.9
2014-Aug-28 15:33N 59°01' E 010°28'1616.4
2014-Aug-28 14:33N 58°59' E 010°59'7 6.4
2014-Aug-28 13:33N 58°56' E 011°10'1111.1
2014-Aug-28 12:33N 59°01' E 010°51'1615.9
2014-Aug-28 11:33N 59°01' E 010°20'7 7.4
2014-Aug-28 10:33N 59°08' E 010°14'6 6.0
2014-Aug-28 09:33N 59°02' E 010°16'1616.3
2014-Aug-28 08:33N 59°01' E 010°48'1312.5
2014-Aug-28 07:33N 58°56' E 011°10'8 8.1
2014-Aug-28 06:33N 59°00' E 010°57'1616.4
2014-Aug-28 05:34N 59°01' E 010°25'9 9.0
2014-Aug-28 04:33N 59°08' E 010°14'1 1.3
2014-Aug-28 03:33N 59°06' E 010°14'0 0.1
2014-Aug-28 02:15N 59°06' E 010°14'0 0.0
2014-Aug-28 01:31N 59°06' E 010°14'0 0.0
2014-Aug-28 00:25N 59°06' E 010°14'0 0.0
2014-Aug-27 23:26N 59°06' E 010°14'0 0.0
2014-Aug-27 22:30N 59°06' E 010°14'0 0.0
2014-Aug-27 21:33N 59°06' E 010°14'0 0.0
2014-Aug-27 20:31N 59°06' E 010°14'0 0.0
2014-Aug-27 18:26N 59°06' E 010°14'0 0.0
2014-Aug-27 17:25N 59°06' E 010°14'1 1.6
2014-Aug-27 16:32N 59°08' E 010°14'1010.2
2014-Aug-27 15:33N 59°01' E 010°28'1515.5
2014-Aug-27 14:33N 58°60' E 010°58'8 7.5
2014-Aug-27 13:33N 58°56' E 011°10'1211.7
2014-Aug-27 12:33N 59°01' E 010°50'1615.7
2014-Aug-27 11:33N 59°01' E 010°19'7 7.0
2014-Aug-27 10:33N 59°08' E 010°14'7 6.7
2014-Aug-27 09:33N 59°01' E 010°19'1515.4
2014-Aug-27 08:33N 59°01' E 010°49'1212.4
2014-Aug-27 07:33N 58°56' E 011°10'9 9.1
2014-Aug-27 06:33N 59°00' E 010°55'1615.8
2014-Aug-27 05:33N 59°01' E 010°24'9 8.8
2014-Aug-27 04:33N 59°08' E 010°14'1 1.4
2014-Aug-27 03:33N 59°06' E 010°14'0 0.1
2014-Aug-27 02:33N 59°06' E 010°14'0 0.0
2014-Aug-27 01:33N 59°06' E 010°14'0 0.0
2014-Aug-27 00:33N 59°06' E 010°14'0 0.0
2014-Aug-26 23:33N 59°06' E 010°14'0 0.0
2014-Aug-26 22:33N 59°06' E 010°14'0 0.0
2014-Aug-26 21:33N 59°06' E 010°14'0 0.0
2014-Aug-26 20:33N 59°06' E 010°14'0 0.0
2014-Aug-26 19:33N 59°06' E 010°14'0 0.0
2014-Aug-26 18:33N 59°06' E 010°14'0 0.0
2014-Aug-26 17:33N 59°06' E 010°14'1 1.4
2014-Aug-26 16:33N 59°08' E 010°14'10 9.8
2014-Aug-26 15:33N 59°01' E 010°27'1615.5
2014-Aug-26 14:33N 59°00' E 010°57'8 8.0
2014-Aug-26 13:33N 58°56' E 011°10'1211.6
2014-Aug-26 12:33N 59°01' E 010°50'1616.3
2014-Aug-26 11:33N 59°01' E 010°18'7 6.8
2014-Aug-26 10:33N 59°08' E 010°14'7 6.7
2014-Aug-26 09:33N 59°01' E 010°19'1515.4
2014-Aug-26 08:33N 59°02' E 010°48'1212.3
2014-Aug-26 07:32N 58°56' E 011°10'8 8.2
2014-Aug-26 06:33N 59°00' E 010°57'1616.0
2014-Aug-26 05:33N 59°01' E 010°26'9 9.3
2014-Aug-26 04:33N 59°08' E 010°14'1 1.4
2014-Aug-26 03:33N 59°06' E 010°14'0 0.1
2014-Aug-26 02:33N 59°06' E 010°14'0 0.0
2014-Aug-26 01:33N 59°06' E 010°14'0 0.0
2014-Aug-26 00:33N 59°06' E 010°14'0 0.0
2014-Aug-25 23:33N 59°06' E 010°14'0 0.0
2014-Aug-25 22:33N 59°06' E 010°14'0 0.0
2014-Aug-25 21:33N 59°06' E 010°14'0 0.0
2014-Aug-25 20:33N 59°06' E 010°14'0 0.0
2014-Aug-25 19:33N 59°06' E 010°14'0 0.0
2014-Aug-25 18:33N 59°06' E 010°14'0 0.0
2014-Aug-25 17:33N 59°06' E 010°14'1 1.4
2014-Aug-25 16:33N 59°08' E 010°14'10 9.9
2014-Aug-25 15:33N 59°01' E 010°28'22 9.8
2014-Aug-25 13:19N 58°56' E 011°09'1215.1
2014-Aug-25 12:33N 59°01' E 010°49'1515.4
2014-Aug-25 11:33N 59°01' E 010°19'7 7.1
2014-Aug-25 10:33N 59°08' E 010°14'7 6.8
2014-Aug-25 09:33N 59°01' E 010°19'1615.7
2014-Aug-25 08:33N 59°01' E 010°49'1212.0
2014-Aug-25 07:33N 58°56' E 011°10'9 8.5
2014-Aug-25 06:33N 59°00' E 010°56'1616.3
2014-Aug-25 05:33N 59°01' E 010°24'9 8.9
2014-Aug-25 04:33N 59°08' E 010°14'1 1.4
2014-Aug-25 03:33N 59°06' E 010°14'0 0.0
2014-Aug-25 02:33N 59°06' E 010°14'0 0.0
2014-Aug-25 01:33N 59°06' E 010°14'0 0.0
2014-Aug-25 00:28N 59°06' E 010°14'0 0.0
2014-Aug-24 22:12N 59°06' E 010°14'0 0.0
2014-Aug-24 21:33N 59°06' E 010°14'0 0.0
2014-Aug-24 20:31N 59°06' E 010°14'0 0.0
2014-Aug-24 19:32N 59°06' E 010°14'0 0.0
2014-Aug-24 18:29N 59°06' E 010°14'0 0.0
2014-Aug-24 17:33N 59°06' E 010°14'1 1.2
2014-Aug-24 16:32N 59°07' E 010°14'1110.7
2014-Aug-24 15:33N 59°01' E 010°29'1515.0
2014-Aug-24 14:33N 58°60' E 010°59'7 6.5
2014-Aug-24 13:29N 58°56' E 011°10'1314.1
2014-Aug-24 12:33N 59°02' E 010°47'1616.3
2014-Aug-24 11:33N 59°02' E 010°16'6 5.7
2014-Aug-24 10:33N 59°08' E 010°14'7 7.0
2014-Aug-24 09:33N 59°01' E 010°20'1615.5
2014-Aug-24 08:33N 59°01' E 010°50'1211.7
2014-Aug-24 07:33N 58°56' E 011°10'9 9.1
2014-Aug-24 06:33N 59°00' E 010°55'1616.1
2014-Aug-24 05:33N 59°01' E 010°24'9 8.7
2014-Aug-24 04:33N 59°08' E 010°14'1 1.4
2014-Aug-24 03:33N 59°06' E 010°14'0 0.0
2014-Aug-23 03:33N 59°06' E 010°14'0 0.0
2014-Aug-22 19:09N 59°06' E 010°14'0 0.0
2014-Aug-22 18:32N 59°06' E 010°14'0 0.0
2014-Aug-22 17:33N 59°06' E 010°14'1 0.8
2014-Aug-22 16:29N 59°07' E 010°14'1111.5
2014-Aug-22 15:33N 59°01' E 010°30'1515.3
2014-Aug-22 14:34N 58°59' E 010°60'6 6.2
2014-Aug-22 13:33N 58°56' E 011°10'1312.7
2014-Aug-22 12:33N 59°02' E 010°48'1616.5
2014-Aug-22 11:33N 59°02' E 010°16'  

Dump ship's entire track history